createdAt,value
2022-09-15T00:01:01.036Z,15.61
2022-09-15T00:03:28.609Z,15.61
2022-09-15T00:05:55.261Z,15.62
2022-09-15T00:08:23.223Z,15.62
2022-09-15T00:10:56.058Z,15.62
2022-09-15T00:13:23.182Z,15.59
2022-09-15T00:15:50.334Z,15.58
2022-09-15T00:18:17.449Z,15.57
2022-09-15T00:20:45.320Z,15.56
2022-09-15T00:23:13.908Z,15.56
2022-09-15T00:25:52.779Z,15.55
2022-09-15T00:28:22.304Z,15.56
2022-09-15T00:30:52.556Z,15.56
2022-09-15T00:33:21.049Z,15.56
2022-09-15T00:35:50.582Z,15.55
2022-09-15T00:38:18.755Z,15.57
2022-09-15T00:40:55.712Z,15.58
2022-09-15T00:43:43.359Z,15.57
2022-09-15T00:46:10.562Z,15.58
2022-09-15T00:48:41.956Z,15.59
2022-09-15T00:51:10.633Z,15.59
2022-09-15T00:53:37.746Z,15.59
2022-09-15T00:56:06.913Z,15.57
2022-09-15T00:58:42.168Z,15.58
2022-09-15T01:01:09.190Z,15.60
2022-09-15T01:03:36.930Z,15.58
2022-09-15T01:07:58.234Z,15.57
2022-09-15T01:10:41.925Z,15.54
2022-09-15T01:13:26.915Z,15.53
2022-09-15T01:16:26.629Z,15.51
2022-09-15T01:19:08.585Z,15.51
2022-09-15T01:21:58.193Z,15.49
2022-09-15T01:24:56.159Z,15.49
2022-09-15T01:42:10.442Z,15.39
2022-09-15T01:44:55.095Z,15.38
2022-09-15T01:47:23.128Z,15.38
2022-09-15T01:49:57.029Z,15.33
2022-09-15T01:52:24.605Z,15.33
2022-09-15T01:54:56.235Z,15.30
2022-09-15T01:57:23.194Z,15.26
2022-09-15T01:59:51.701Z,15.25
2022-09-15T02:02:34.176Z,15.27
2022-09-15T02:05:14.570Z,15.28
2022-09-15T02:08:05.373Z,15.24
2022-09-15T02:10:35.090Z,15.22
2022-09-15T02:13:11.596Z,15.25
2022-09-15T02:15:43.854Z,15.20
2022-09-15T02:18:14.894Z,15.20
2022-09-15T02:20:52.044Z,15.19
2022-09-15T02:23:28.810Z,15.20
2022-09-15T02:26:05.220Z,15.20
2022-09-15T02:28:35.435Z,15.19
2022-09-15T02:31:05.208Z,15.17
2022-09-15T02:33:37.319Z,15.13
2022-09-15T02:36:05.178Z,15.09
2022-09-15T02:38:39.046Z,15.11
2022-09-15T02:41:06.108Z,15.09
2022-09-15T02:43:33.083Z,15.06
2022-09-15T02:46:00.348Z,15.05
2022-09-15T02:48:27.053Z,15.02
2022-09-15T02:50:54.038Z,15.00
2022-09-15T02:53:20.598Z,14.98
2022-09-15T02:55:47.532Z,14.96
2022-09-15T02:58:14.118Z,14.92
2022-09-15T03:00:40.914Z,14.89
2022-09-15T03:03:08.356Z,14.84
2022-09-15T03:08:50.938Z,14.71
2022-09-15T03:11:20.404Z,14.67
2022-09-15T03:13:48.007Z,14.62
2022-09-15T03:16:16.365Z,14.62
2022-09-15T03:18:43.338Z,14.53
2022-09-15T03:21:14.080Z,14.48
2022-09-15T03:23:41.994Z,14.47
2022-09-15T03:26:10.530Z,14.48
2022-09-15T03:28:39.011Z,14.47
2022-09-15T03:31:07.496Z,14.41
2022-09-15T03:33:34.649Z,14.40
2022-09-15T03:36:01.775Z,14.27
2022-09-15T03:38:29.176Z,14.23
2022-09-15T03:41:01.766Z,14.14
2022-09-15T03:43:30.383Z,14.11
2022-09-15T03:45:57.417Z,14.05
2022-09-15T03:48:28.656Z,14.04
2022-09-15T03:50:58.551Z,13.93
2022-09-15T03:53:25.436Z,13.93
2022-09-15T03:55:52.771Z,13.87
2022-09-15T03:58:19.625Z,13.85
2022-09-15T04:00:49.297Z,13.87
2022-09-15T04:03:16.438Z,13.87
2022-09-15T04:05:43.464Z,13.90
2022-09-15T04:08:13.339Z,13.85
2022-09-15T04:10:41.346Z,13.84
2022-09-15T04:13:11.067Z,13.80
2022-09-15T04:15:37.980Z,13.82
2022-09-15T04:18:05.113Z,13.86
2022-09-15T04:20:32.383Z,13.86
2022-09-15T04:23:04.636Z,13.88
2022-09-15T04:25:31.316Z,13.89
2022-09-15T04:27:58.431Z,13.89
2022-09-15T04:30:25.382Z,13.85
2022-09-15T04:32:55.319Z,13.89
2022-09-15T04:35:22.103Z,13.90
2022-09-15T04:37:49.153Z,13.91
2022-09-15T04:40:16.232Z,13.88
2022-09-15T04:42:43.236Z,13.91
2022-09-15T04:45:15.416Z,13.94
2022-09-15T04:47:57.775Z,13.89
2022-09-15T04:50:25.232Z,13.91
2022-09-15T04:52:57.786Z,13.90
2022-09-15T04:55:24.733Z,13.90
2022-09-15T04:57:51.516Z,13.90
2022-09-15T05:00:18.413Z,13.95
2022-09-15T05:02:45.800Z,13.99
2022-09-15T05:05:12.538Z,13.95
2022-09-15T05:09:39.621Z,14.03
2022-09-15T05:12:06.999Z,14.00
2022-09-15T05:14:33.699Z,14.00
2022-09-15T05:17:04.024Z,14.01
2022-09-15T05:19:43.100Z,14.03
2022-09-15T05:22:12.819Z,14.04
2022-09-15T05:24:45.394Z,14.03
2022-09-15T05:43:34.694Z,14.21
2022-09-15T05:46:02.476Z,14.23
2022-09-15T05:48:29.602Z,14.27
2022-09-15T05:50:57.027Z,14.31
2022-09-15T05:53:25.071Z,14.33
2022-09-15T05:55:56.665Z,14.36
2022-09-15T05:58:23.857Z,14.40
2022-09-15T06:00:50.728Z,14.41
2022-09-15T06:03:17.402Z,14.42
2022-09-15T06:08:58.570Z,14.52
2022-09-15T06:11:30.712Z,14.53
2022-09-15T06:14:04.584Z,14.57
2022-09-15T06:16:35.298Z,14.61
2022-09-15T06:19:02.370Z,14.62
2022-09-15T06:21:30.549Z,14.67
2022-09-15T06:24:00.406Z,14.69
2022-09-15T06:26:28.146Z,14.73
2022-09-15T06:29:05.113Z,14.77
2022-09-15T06:31:33.341Z,14.79
2022-09-15T06:34:00.763Z,14.81
2022-09-15T06:36:29.255Z,14.81
2022-09-15T06:38:56.297Z,14.84
2022-09-15T06:41:23.233Z,14.83
2022-09-15T06:43:50.240Z,14.85
2022-09-15T06:46:19.993Z,14.88
2022-09-15T06:48:48.499Z,14.89
2022-09-15T06:51:18.080Z,14.97
2022-09-15T06:53:45.256Z,15.07
2022-09-15T06:56:21.270Z,15.15
2022-09-15T06:58:51.391Z,15.27
2022-09-15T07:01:24.418Z,15.34
2022-09-15T07:03:51.312Z,15.38
2022-09-15T07:06:18.715Z,15.44
2022-09-15T07:21:04.635Z,15.65
2022-09-15T07:23:31.477Z,15.76
2022-09-15T07:26:12.267Z,15.80
2022-09-15T07:28:40.639Z,15.88
2022-09-15T07:31:09.688Z,15.93
2022-09-15T07:33:36.886Z,15.94
2022-09-15T07:36:06.131Z,15.98
2022-09-15T07:38:33.724Z,16.04
2022-09-15T07:41:10.092Z,16.07
2022-09-15T07:43:36.993Z,16.18
2022-09-15T07:46:05.010Z,16.28
2022-09-15T07:48:32.225Z,16.43
2022-09-15T07:51:00.227Z,16.56
2022-09-15T07:53:30.613Z,16.71
2022-09-15T07:55:57.687Z,16.91
2022-09-15T07:58:25.394Z,17.00
2022-09-15T08:00:52.313Z,17.01
2022-09-15T08:03:19.325Z,17.03
2022-09-15T08:05:46.398Z,17.00
2022-09-15T08:08:13.435Z,16.98
2022-09-15T08:10:41.545Z,16.96
2022-09-15T08:13:08.546Z,17.00
2022-09-15T08:15:37.847Z,16.98
2022-09-15T08:18:05.688Z,16.93
2022-09-15T08:20:33.130Z,16.94
2022-09-15T08:23:00.068Z,16.88
2022-09-15T08:25:26.860Z,16.83
2022-09-15T08:27:54.576Z,16.82
2022-09-15T08:30:22.622Z,16.86
2022-09-15T08:32:50.485Z,16.94
2022-09-15T08:35:22.552Z,16.98
2022-09-15T08:37:49.261Z,17.03
2022-09-15T08:40:33.096Z,17.13
2022-09-15T08:43:03.798Z,17.33
2022-09-15T08:45:45.134Z,17.55
2022-09-15T08:48:15.891Z,17.67
2022-09-15T08:50:49.235Z,17.79
2022-09-15T08:53:41.047Z,17.83
2022-09-15T08:56:17.188Z,17.71
2022-09-15T08:58:45.669Z,17.62
2022-09-15T09:01:31.191Z,17.45
2022-09-15T09:04:18.206Z,17.33
2022-09-15T09:06:48.176Z,17.20
2022-09-15T09:22:16.062Z,17.12
2022-09-15T09:25:11.618Z,17.14
2022-09-15T09:28:00.065Z,17.23
2022-09-15T09:30:35.060Z,17.33
2022-09-15T09:33:28.876Z,17.36
2022-09-15T09:36:00.055Z,17.41
2022-09-15T09:38:43.769Z,17.35
2022-09-15T09:41:26.326Z,17.24
2022-09-15T09:44:02.012Z,17.23
2022-09-15T09:46:34.422Z,17.16
2022-09-15T09:49:17.116Z,17.11
2022-09-15T09:52:06.542Z,17.10
2022-09-15T09:54:35.791Z,17.08
2022-09-15T09:57:31.849Z,17.07
2022-09-15T10:00:08.397Z,16.96
2022-09-15T10:02:52.758Z,16.89
2022-09-15T10:05:20.449Z,16.82
2022-09-15T10:07:56.805Z,16.73
2022-09-15T10:10:26.310Z,16.70
2022-09-15T10:12:56.904Z,16.61
2022-09-15T10:15:28.916Z,16.55
2022-09-15T10:18:03.080Z,16.52
2022-09-15T10:20:35.710Z,16.52
2022-09-15T10:23:26.932Z,16.55
2022-09-15T10:26:16.214Z,16.56
2022-09-15T10:29:04.662Z,16.60
2022-09-15T10:31:36.293Z,16.64
2022-09-15T10:34:27.680Z,16.70
2022-09-15T10:37:02.313Z,16.72
2022-09-15T10:39:48.597Z,16.83
2022-09-15T10:42:29.794Z,16.85
2022-09-15T10:45:33.139Z,16.78
2022-09-15T10:48:41.998Z,16.72
2022-09-15T10:51:30.942Z,16.65
2022-09-15T10:54:37.252Z,16.64
2022-09-15T10:57:23.351Z,16.74
2022-09-15T11:00:26.823Z,16.88
2022-09-15T11:03:27.323Z,17.14
2022-09-15T11:06:26.694Z,17.43
2022-09-15T11:12:45.698Z,17.98
2022-09-15T11:15:57.788Z,18.23
2022-09-15T11:18:52.050Z,18.50
2022-09-15T11:21:48.782Z,18.70
2022-09-15T11:24:39.697Z,18.72
2022-09-15T11:27:31.683Z,18.81
2022-09-15T11:30:21.210Z,19.04
2022-09-15T11:32:55.617Z,19.20
2022-09-15T11:35:31.374Z,19.23
2022-09-15T11:38:26.846Z,19.26
2022-09-15T11:41:08.476Z,19.17
2022-09-15T11:44:02.596Z,19.05
2022-09-15T11:46:39.811Z,19.01
2022-09-15T11:49:20.380Z,19.08
2022-09-15T11:52:01.761Z,19.16
2022-09-15T11:54:52.234Z,19.16
2022-09-15T11:57:25.839Z,19.16
2022-09-15T12:00:02.804Z,19.08
2022-09-15T12:02:50.131Z,18.98
2022-09-15T12:05:58.027Z,18.84
2022-09-15T12:08:37.042Z,18.82
2022-09-15T12:11:17.943Z,18.87
2022-09-15T12:13:48.158Z,18.89
2022-09-15T12:16:17.556Z,18.90
2022-09-15T12:19:07.314Z,18.81
2022-09-15T12:21:44.326Z,18.64
2022-09-15T12:24:23.478Z,18.49
2022-09-15T12:26:50.598Z,18.25
2022-09-15T12:29:26.895Z,18.11
2022-09-15T12:32:25.763Z,17.92
2022-09-15T12:35:18.076Z,17.83
2022-09-15T12:41:04.304Z,17.76
2022-09-15T12:43:32.200Z,17.75
2022-09-15T12:46:02.305Z,17.73
2022-09-15T12:48:46.747Z,17.69
2022-09-15T12:51:32.061Z,17.57
2022-09-15T12:54:09.751Z,17.52
2022-09-15T12:56:39.179Z,17.48
2022-09-15T12:59:08.607Z,17.52
2022-09-15T13:01:48.736Z,17.52
2022-09-15T13:04:58.125Z,17.59
2022-09-15T13:08:25.182Z,17.76
2022-09-15T13:24:14.754Z,17.97
2022-09-15T13:26:44.984Z,17.84
2022-09-15T13:29:21.451Z,17.79
2022-09-15T13:32:04.718Z,17.69
2022-09-15T13:35:08.935Z,17.58
2022-09-15T13:38:31.680Z,17.44
2022-09-15T13:41:49.066Z,17.36
2022-09-15T13:44:53.536Z,17.34
2022-09-15T13:47:57.052Z,17.30
2022-09-15T13:50:33.360Z,17.21
2022-09-15T13:53:06.274Z,17.18
2022-09-15T13:55:43.716Z,17.11
2022-09-15T14:01:21.778Z,17.07
2022-09-15T14:03:58.167Z,17.05
2022-09-15T14:06:30.911Z,16.96
2022-09-15T14:09:23.823Z,16.99
2022-09-15T14:11:59.670Z,17.01
2022-09-15T14:14:37.335Z,17.00
2022-09-15T14:17:22.917Z,16.99
2022-09-15T14:19:56.444Z,16.98
2022-09-15T14:22:40.264Z,16.92
2022-09-15T14:25:17.281Z,16.91
2022-09-15T14:27:49.149Z,16.80
2022-09-15T14:30:21.018Z,16.79
2022-09-15T14:32:52.424Z,16.74
2022-09-15T14:35:25.594Z,16.74
2022-09-15T14:38:05.540Z,16.69
2022-09-15T14:40:38.206Z,16.65
2022-09-15T14:43:26.961Z,16.59
2022-09-15T14:46:10.734Z,16.48
2022-09-15T14:48:43.026Z,16.43
2022-09-15T14:51:25.802Z,16.42
2022-09-15T14:53:58.531Z,16.42
2022-09-15T14:56:38.103Z,16.32
2022-09-15T14:59:17.102Z,16.30
2022-09-15T15:02:18.691Z,16.25
2022-09-15T15:04:53.970Z,16.21
2022-09-15T15:07:29.754Z,16.11
2022-09-15T15:10:00.625Z,16.08
2022-09-15T15:14:39.215Z,15.93
2022-09-15T15:17:06.304Z,15.88
2022-09-15T15:19:37.789Z,15.88
2022-09-15T15:22:14.366Z,15.82
2022-09-15T15:24:43.924Z,15.81
2022-09-15T15:27:38.720Z,15.76
2022-09-15T15:30:30.924Z,-144.48
2022-09-15T15:33:06.600Z,-144.48
2022-09-15T15:35:35.926Z,-144.48
2022-09-15T15:38:12.979Z,-144.48
2022-09-15T15:40:41.266Z,-144.48
2022-09-15T15:43:13.997Z,-144.48
2022-09-15T15:45:51.577Z,-144.48
2022-09-15T15:48:18.384Z,-144.48
2022-09-15T15:50:45.347Z,-144.48
2022-09-15T15:53:12.326Z,-144.48
2022-09-15T15:55:44.309Z,-144.48
2022-09-15T15:58:13.144Z,-144.48
2022-09-15T16:00:46.114Z,-144.48
2022-09-15T16:03:13.965Z,-144.48
2022-09-15T16:05:44.116Z,-144.48
2022-09-15T16:08:31.495Z,-144.48
2022-09-15T16:11:03.574Z,-144.48
2022-09-15T16:13:30.937Z,-144.48
2022-09-15T16:16:01.255Z,-144.48
2022-09-15T16:18:29.071Z,-144.48
2022-09-15T16:20:55.915Z,-144.48
2022-09-15T16:23:23.591Z,-144.48
2022-09-15T16:26:05.623Z,-144.48
2022-09-15T16:28:32.552Z,-144.48
2022-09-15T16:30:59.603Z,-144.48
2022-09-15T16:33:27.274Z,-144.48
2022-09-15T16:36:08.338Z,-144.48
2022-09-15T16:38:36.876Z,-144.48
2022-09-15T16:41:10.935Z,-144.48
2022-09-15T16:43:37.777Z,-144.48
2022-09-15T16:46:05.926Z,-144.48
2022-09-15T16:48:32.839Z,-144.48
2022-09-15T16:51:23.018Z,-144.48
2022-09-15T16:53:47.917Z,-144.48
2022-09-15T16:56:15.930Z,-144.48
2022-09-15T16:58:43.426Z,-144.48
2022-09-15T17:01:18.320Z,-144.48
2022-09-15T17:03:45.796Z,-144.48
2022-09-15T17:06:14.660Z,-144.48
2022-09-15T17:08:41.887Z,-144.48
2022-09-15T17:11:16.530Z,-144.48
2022-09-15T17:15:39.314Z,14.46
2022-09-15T17:18:09.006Z,14.43
2022-09-15T17:20:39.353Z,14.46
2022-09-15T17:23:23.475Z,14.43
2022-09-15T17:25:56.640Z,14.41
2022-09-15T17:28:25.741Z,14.43
2022-09-15T17:31:04.350Z,14.37
2022-09-15T17:33:32.376Z,14.34
2022-09-15T17:35:59.908Z,14.39
2022-09-15T17:38:27.408Z,14.35
2022-09-15T17:40:55.599Z,14.34
2022-09-15T17:43:25.552Z,14.31
2022-09-15T17:45:52.953Z,14.33
2022-09-15T17:48:20.589Z,14.27
2022-09-15T17:50:51.378Z,14.26
2022-09-15T17:53:21.316Z,14.25
2022-09-15T17:55:49.488Z,14.23
2022-09-15T17:58:17.074Z,14.21
2022-09-15T18:00:47.400Z,14.21
2022-09-15T18:03:25.043Z,14.20
2022-09-15T18:05:52.393Z,14.22
2022-09-15T18:08:19.286Z,14.16
2022-09-15T18:10:46.461Z,14.18
2022-09-15T18:13:19.943Z,14.13
2022-09-15T18:15:49.088Z,14.14
2022-09-15T18:18:20.888Z,14.15
2022-09-15T18:20:48.440Z,14.09
2022-09-15T18:23:18.482Z,14.10
2022-09-15T18:25:47.092Z,14.11
2022-09-15T18:28:14.025Z,14.09
2022-09-15T18:30:42.966Z,14.09
2022-09-15T18:33:21.405Z,14.05
2022-09-15T18:35:50.299Z,14.08
2022-09-15T18:38:17.613Z,14.07
2022-09-15T18:40:50.249Z,14.09
2022-09-15T18:43:17.499Z,14.07
2022-09-15T18:45:44.800Z,14.05
2022-09-15T18:48:13.103Z,14.07
2022-09-15T18:50:41.083Z,14.04
2022-09-15T18:53:08.086Z,14.02
2022-09-15T18:55:35.170Z,14.02
2022-09-15T18:58:02.536Z,14.03
2022-09-15T19:00:29.975Z,14.08
2022-09-15T19:03:01.560Z,14.04
2022-09-15T19:05:30.053Z,13.98
2022-09-15T19:07:57.588Z,13.96
2022-09-15T19:10:25.602Z,13.96
2022-09-15T19:12:52.549Z,13.96
2022-09-15T19:16:57.703Z,13.89
2022-09-15T19:19:26.896Z,13.85
2022-09-15T19:21:57.120Z,13.88
2022-09-15T19:24:33.763Z,13.87
2022-09-15T19:27:06.550Z,13.83
2022-09-15T19:29:41.171Z,13.82
2022-09-15T19:32:12.138Z,13.80
2022-09-15T19:34:54.326Z,13.81
2022-09-15T19:37:33.490Z,13.83
2022-09-15T19:40:08.107Z,13.79
2022-09-15T19:42:41.910Z,13.74
2022-09-15T19:45:15.978Z,13.69
2022-09-15T19:47:45.940Z,13.68
2022-09-15T19:50:17.991Z,13.60
2022-09-15T19:52:50.543Z,13.63
2022-09-15T19:55:19.761Z,13.55
2022-09-15T19:57:52.160Z,13.44
2022-09-15T20:00:22.688Z,13.39
2022-09-15T20:02:54.314Z,13.34
2022-09-15T20:05:26.813Z,13.34
2022-09-15T20:07:58.304Z,13.29
2022-09-15T20:10:33.047Z,13.25
2022-09-15T20:13:02.725Z,13.30
2022-09-15T20:15:32.599Z,13.30
2022-09-15T20:18:04.721Z,13.30
2022-09-15T20:20:40.437Z,13.31
2022-09-15T20:23:09.848Z,13.32
2022-09-15T20:25:36.990Z,13.32
2022-09-15T20:28:09.233Z,13.33
2022-09-15T20:30:39.796Z,13.30
2022-09-15T20:33:09.378Z,13.27
2022-09-15T20:35:36.408Z,13.23
2022-09-15T20:38:03.148Z,13.20
2022-09-15T20:40:36.953Z,13.13
2022-09-15T20:43:09.589Z,13.11
2022-09-15T20:45:48.148Z,13.04
2022-09-15T20:48:15.210Z,13.00
2022-09-15T20:50:42.301Z,12.98
2022-09-15T20:53:09.228Z,12.97
2022-09-15T20:55:50.917Z,12.89
2022-09-15T20:58:24.111Z,12.90
2022-09-15T21:00:52.421Z,12.86
2022-09-15T21:03:23.164Z,12.82
2022-09-15T21:06:00.426Z,12.88
2022-09-15T21:08:28.394Z,12.85
2022-09-15T21:10:55.930Z,12.81
2022-09-15T21:13:23.433Z,12.83
2022-09-15T21:17:39.929Z,12.74
2022-09-15T21:20:07.114Z,12.76
2022-09-15T21:22:34.249Z,12.71
2022-09-15T21:25:01.005Z,12.76
2022-09-15T21:27:27.697Z,12.74
2022-09-15T21:29:54.952Z,12.77
2022-09-15T21:32:23.288Z,12.79
2022-09-15T21:34:50.085Z,12.86
2022-09-15T21:37:16.783Z,12.88
2022-09-15T21:39:43.392Z,12.88
2022-09-15T21:42:10.865Z,12.86
2022-09-15T21:44:37.429Z,12.91
2022-09-15T21:47:04.073Z,12.89
2022-09-15T21:49:32.569Z,12.87
2022-09-15T21:51:59.733Z,12.89
2022-09-15T21:54:26.433Z,12.87
2022-09-15T21:56:53.328Z,12.87
2022-09-15T21:59:20.084Z,12.89
2022-09-15T22:01:46.916Z,12.89
2022-09-15T22:04:13.760Z,12.92
2022-09-15T22:06:41.865Z,12.90
2022-09-15T22:09:13.193Z,12.91
2022-09-15T22:11:40.428Z,12.91
2022-09-15T22:14:10.619Z,12.93
2022-09-15T22:16:38.737Z,12.93
2022-09-15T22:19:07.191Z,12.92
2022-09-15T22:21:39.659Z,12.90
2022-09-15T22:24:07.212Z,12.89
2022-09-15T22:26:37.250Z,12.92
2022-09-15T22:29:14.106Z,12.92
2022-09-15T22:31:42.535Z,12.87
2022-09-15T22:34:09.665Z,12.83
2022-09-15T22:36:36.453Z,12.85
2022-09-15T22:39:05.438Z,12.84
2022-09-15T22:41:34.860Z,12.81
2022-09-15T22:44:01.853Z,12.82
2022-09-15T22:46:31.764Z,12.82
2022-09-15T22:48:58.545Z,12.76
2022-09-15T22:51:25.461Z,12.73
2022-09-15T22:53:57.774Z,12.69
2022-09-15T22:56:26.756Z,12.70
2022-09-15T22:58:54.422Z,12.65
2022-09-15T23:01:23.762Z,12.58
2022-09-15T23:03:58.347Z,12.49
2022-09-15T23:06:27.606Z,12.45
2022-09-15T23:08:56.623Z,12.39
2022-09-15T23:11:24.720Z,12.30
2022-09-15T23:13:52.677Z,12.23
2022-09-15T23:18:35.098Z,12.07
2022-09-15T23:21:07.531Z,12.01
2022-09-15T23:23:35.970Z,11.94
2022-09-15T23:26:04.408Z,11.89
2022-09-15T23:28:31.426Z,11.82
2022-09-15T23:30:59.443Z,11.76
2022-09-15T23:33:28.916Z,11.71
2022-09-15T23:35:56.062Z,11.62
2022-09-15T23:38:22.992Z,11.59
2022-09-15T23:40:50.757Z,11.52
2022-09-15T23:43:17.872Z,11.50
2022-09-15T23:45:45.489Z,11.45
2022-09-15T23:48:13.209Z,11.45
2022-09-15T23:50:40.779Z,11.45
2022-09-15T23:53:07.906Z,11.46
2022-09-15T23:55:34.542Z,11.48
2022-09-15T23:58:01.083Z,11.50
